createdAt,value
2018-12-08T00:03:38.448Z,9.84
2018-12-08T00:08:45.082Z,9.65
2018-12-08T00:13:49.631Z,9.47
2018-12-08T00:18:53.980Z,9.33
2018-12-08T00:23:59.127Z,9.19
2018-12-08T00:29:03.382Z,9.13
2018-12-08T00:34:09.153Z,9.07
2018-12-08T00:39:13.486Z,8.98
2018-12-08T00:44:17.994Z,8.90
2018-12-08T00:49:22.508Z,8.90
2018-12-08T00:54:26.770Z,8.83
2018-12-08T00:59:32.230Z,8.78
2018-12-08T01:04:51.382Z,8.69
2018-12-08T01:09:58.200Z,8.61
2018-12-08T01:15:04.033Z,8.57
2018-12-08T01:20:10.144Z,8.57
2018-12-08T01:25:14.624Z,8.45
2018-12-08T01:30:18.866Z,8.38
2018-12-08T01:35:23.628Z,8.37
2018-12-08T01:40:27.880Z,8.28
2018-12-08T01:45:37.199Z,8.23
2018-12-08T01:50:41.481Z,8.14
2018-12-08T01:55:45.811Z,8.11
2018-12-08T02:00:50.033Z,8.05
2018-12-08T02:05:55.531Z,8.03
2018-12-08T02:11:00.095Z,8.01
2018-12-08T02:16:04.403Z,7.94
2018-12-08T02:21:08.534Z,7.87
2018-12-08T02:26:13.110Z,7.87
2018-12-08T02:31:17.554Z,7.85
2018-12-08T02:36:26.673Z,7.83
2018-12-08T02:41:31.126Z,7.77
2018-12-08T02:46:35.353Z,7.71
2018-12-08T02:51:41.328Z,7.70
2018-12-08T02:56:50.628Z,7.65
2018-12-08T03:01:55.199Z,7.54
2018-12-08T03:06:59.513Z,7.60
2018-12-08T03:12:05.019Z,7.50
2018-12-08T03:17:09.251Z,7.47
2018-12-08T03:22:13.470Z,7.48
2018-12-08T03:27:17.752Z,7.39
2018-12-08T03:32:22.111Z,7.41
2018-12-08T03:37:26.337Z,7.44
2018-12-08T03:42:30.944Z,7.41
2018-12-08T03:47:36.081Z,7.36
2018-12-08T03:52:40.559Z,7.37
2018-12-08T03:57:46.178Z,7.31
2018-12-08T04:02:50.470Z,7.29
2018-12-08T04:07:54.738Z,7.25
2018-12-08T04:12:59.100Z,7.18
2018-12-08T04:18:03.602Z,7.16
2018-12-08T04:23:08.677Z,7.20
2018-12-08T04:28:12.864Z,7.14
2018-12-08T04:33:17.103Z,7.10
2018-12-08T04:38:21.453Z,7.11
2018-12-08T04:43:25.766Z,7.07
2018-12-08T04:48:30.304Z,7.09
2018-12-08T04:53:34.461Z,7.01
2018-12-08T04:58:38.619Z,7.07
2018-12-08T05:03:42.777Z,7.07
2018-12-08T05:08:46.981Z,6.99
2018-12-08T05:13:51.463Z,7.07
2018-12-08T05:18:55.670Z,7.06
2018-12-08T05:24:00.502Z,7.09
2018-12-08T05:29:06.785Z,7.13
2018-12-08T05:34:11.124Z,7.12
2018-12-08T05:39:15.391Z,7.04
2018-12-08T05:44:19.953Z,6.92
2018-12-08T05:49:24.362Z,6.92
2018-12-08T05:54:28.587Z,6.83
2018-12-08T05:59:32.786Z,6.85
2018-12-08T06:04:42.095Z,6.76
2018-12-08T06:09:46.464Z,6.73
2018-12-08T06:14:50.782Z,6.69
2018-12-08T06:19:54.988Z,6.71
2018-12-08T06:25:01.743Z,6.67
2018-12-08T06:30:08.423Z,6.64
2018-12-08T06:35:12.940Z,6.66
2018-12-08T06:40:17.358Z,6.62
2018-12-08T06:45:22.750Z,6.62
2018-12-08T06:50:27.140Z,6.57
2018-12-08T06:55:36.632Z,6.61
2018-12-08T07:00:41.076Z,6.61
2018-12-08T07:05:45.410Z,6.55
2018-12-08T07:10:50.077Z,6.52
2018-12-08T07:15:54.332Z,6.50
2018-12-08T07:20:58.744Z,6.49
2018-12-08T07:26:08.352Z,6.49
2018-12-08T07:31:12.928Z,6.51
2018-12-08T07:36:17.385Z,6.59
2018-12-08T07:41:21.704Z,6.68
2018-12-08T07:46:35.698Z,6.78
2018-12-08T07:51:40.287Z,6.90
2018-12-08T07:56:44.799Z,6.97
2018-12-08T08:01:49.125Z,7.10
2018-12-08T08:06:53.386Z,7.23
2018-12-08T08:11:57.641Z,7.28
2018-12-08T08:17:02.047Z,7.38
2018-12-08T08:22:06.496Z,7.40
2018-12-08T08:27:12.749Z,7.41
2018-12-08T08:32:17.293Z,7.42
2018-12-08T08:37:21.911Z,7.42
2018-12-08T08:42:26.205Z,7.50
2018-12-08T08:47:30.536Z,7.51
2018-12-08T08:52:36.271Z,7.55
2018-12-08T08:57:40.817Z,7.58
2018-12-08T09:08:01.501Z,7.67
2018-12-08T09:13:07.598Z,7.78
2018-12-08T09:18:12.725Z,7.82
2018-12-08T09:23:17.089Z,7.85
2018-12-08T09:28:22.183Z,7.88
2018-12-08T09:33:27.629Z,7.93
2018-12-08T09:38:32.577Z,8.01
2018-12-08T09:43:36.958Z,8.11
2018-12-08T09:48:41.232Z,8.18
2018-12-08T09:53:45.483Z,8.22
2018-12-08T09:58:50.125Z,8.39
2018-12-08T10:03:56.946Z,8.43
2018-12-08T10:09:02.127Z,8.46
2018-12-08T10:14:08.767Z,8.55
2018-12-08T10:19:13.367Z,8.53
2018-12-08T10:24:19.974Z,8.51
2018-12-08T10:29:24.488Z,8.50
2018-12-08T10:34:29.537Z,8.52
2018-12-08T10:39:35.022Z,8.56
2018-12-08T10:44:39.908Z,8.62
2018-12-08T10:49:45.450Z,8.58
2018-12-08T10:54:49.732Z,8.62
2018-12-08T10:59:54.160Z,8.62
2018-12-08T11:05:00.669Z,8.72
2018-12-08T11:10:05.418Z,8.67
2018-12-08T11:15:10.731Z,8.75
2018-12-08T11:20:15.267Z,8.73
2018-12-08T11:25:28.598Z,8.80
2018-12-08T11:30:34.792Z,8.98
2018-12-08T11:35:39.296Z,9.18
2018-12-08T11:40:43.701Z,9.15
2018-12-08T11:45:48.142Z,9.19
2018-12-08T11:50:52.949Z,9.29
2018-12-08T11:56:00.521Z,9.30
2018-12-08T12:01:04.947Z,9.43
2018-12-08T12:06:16.288Z,9.31
2018-12-08T12:11:21.895Z,9.19
2018-12-08T12:16:26.123Z,9.17
2018-12-08T12:21:30.547Z,9.26
2018-12-08T12:26:36.527Z,9.36
2018-12-08T12:31:40.985Z,9.43
2018-12-08T12:36:51.141Z,9.46
2018-12-08T12:41:55.393Z,9.47
2018-12-08T12:46:59.788Z,9.39
2018-12-08T12:52:04.358Z,9.40
2018-12-08T12:57:14.132Z,9.29
2018-12-08T13:02:18.608Z,9.15
2018-12-08T13:07:23.294Z,9.09
2018-12-08T13:12:30.023Z,9.02
2018-12-08T13:17:34.228Z,8.99
2018-12-08T13:22:38.670Z,9.05
2018-12-08T13:27:43.002Z,9.06
2018-12-08T13:32:48.411Z,9.06
2018-12-08T13:37:52.715Z,9.06
2018-12-08T13:42:57.409Z,9.03
2018-12-08T13:48:03.012Z,9.02
2018-12-08T13:53:08.487Z,8.92
2018-12-08T13:58:12.722Z,8.73
2018-12-08T14:03:17.042Z,8.57
2018-12-08T14:08:21.375Z,8.56
2018-12-08T14:13:25.670Z,8.53
2018-12-08T14:18:30.051Z,8.50
2018-12-08T14:23:34.379Z,8.41
2018-12-08T14:28:39.054Z,8.33
2018-12-08T14:33:43.823Z,8.35
2018-12-08T14:38:48.091Z,8.36
2018-12-08T14:43:52.774Z,8.41
2018-12-08T14:48:57.331Z,8.38
2018-12-08T14:54:02.219Z,8.39
2018-12-08T14:59:07.591Z,8.41
2018-12-08T15:04:15.263Z,8.39
2018-12-08T15:09:20.505Z,8.42
2018-12-08T15:14:25.345Z,8.44
2018-12-08T15:19:30.012Z,8.40
2018-12-08T15:24:34.344Z,8.45
2018-12-08T15:29:38.773Z,8.43
2018-12-08T15:34:43.432Z,8.50
2018-12-08T15:39:47.891Z,8.57
2018-12-08T15:44:54.711Z,8.55
2018-12-08T15:49:59.316Z,8.57
2018-12-08T15:55:03.849Z,8.60
2018-12-08T16:00:10.829Z,8.60
2018-12-08T16:05:15.459Z,8.62
2018-12-08T16:10:20.017Z,8.52
2018-12-08T16:15:30.611Z,8.52
2018-12-08T16:20:35.164Z,8.47
2018-12-08T16:25:41.170Z,8.45
2018-12-08T16:30:45.578Z,8.43
2018-12-08T16:35:50.000Z,8.40
2018-12-08T16:40:54.260Z,8.35
2018-12-08T16:46:03.659Z,8.34
2018-12-08T16:51:08.064Z,8.35
2018-12-08T16:56:16.285Z,8.42
2018-12-08T17:01:21.577Z,8.41
2018-12-08T17:06:26.115Z,8.51
2018-12-08T17:11:32.538Z,8.51
2018-12-08T17:16:38.736Z,8.52
2018-12-08T17:21:43.129Z,8.56
2018-12-08T17:26:47.407Z,8.66
2018-12-08T17:31:51.948Z,8.70
2018-12-08T17:36:56.322Z,8.69
2018-12-08T17:42:02.686Z,8.62
2018-12-08T17:47:07.395Z,8.58
2018-12-08T17:52:11.905Z,8.59
2018-12-08T17:57:16.316Z,8.63
2018-12-08T18:02:20.698Z,8.67
2018-12-08T18:07:25.074Z,8.65
2018-12-08T18:12:29.472Z,8.61
2018-12-08T18:17:33.793Z,8.46
2018-12-08T18:22:37.991Z,8.47
2018-12-08T18:27:42.487Z,8.42
2018-12-08T18:32:46.979Z,8.42
2018-12-08T18:37:56.338Z,8.44
2018-12-08T18:43:00.768Z,8.47
2018-12-08T18:48:05.351Z,8.46
2018-12-08T18:53:09.776Z,8.42
2018-12-08T18:58:14.288Z,8.39
2018-12-08T19:08:37.665Z,8.31
2018-12-08T19:13:41.995Z,8.33
2018-12-08T19:18:46.595Z,8.31
2018-12-08T19:23:51.443Z,8.27
2018-12-08T19:28:55.811Z,8.24
2018-12-08T19:34:00.439Z,8.19
2018-12-08T19:39:06.205Z,8.12
2018-12-08T19:44:22.039Z,8.06
2018-12-08T19:49:26.330Z,8.09
2018-12-08T19:54:30.672Z,8.00
2018-12-08T19:59:35.127Z,8.06
2018-12-08T20:04:39.537Z,8.07
2018-12-08T20:09:44.001Z,8.02
2018-12-08T20:14:48.427Z,8.04
2018-12-08T20:19:52.773Z,7.99
2018-12-08T20:24:57.232Z,7.91
2018-12-08T20:30:01.877Z,7.93
2018-12-08T20:35:08.398Z,7.95
2018-12-08T20:40:12.890Z,7.92
2018-12-08T20:45:17.634Z,7.89
2018-12-08T20:50:22.010Z,7.89
2018-12-08T20:55:28.567Z,7.97
2018-12-08T21:00:33.157Z,8.10
2018-12-08T21:05:37.587Z,8.17
2018-12-08T21:10:42.425Z,8.22
2018-12-08T21:15:47.389Z,8.31
2018-12-08T21:20:51.591Z,8.31
2018-12-08T21:25:56.119Z,8.36
2018-12-08T21:31:00.600Z,8.38
2018-12-08T21:36:06.543Z,8.40
2018-12-08T21:41:10.864Z,8.39
2018-12-08T21:46:15.491Z,8.40
2018-12-08T21:51:19.789Z,8.44
2018-12-08T21:56:24.593Z,8.48
2018-12-08T22:06:48.586Z,8.63
2018-12-08T22:11:53.538Z,8.62
2018-12-08T22:16:57.869Z,8.64
2018-12-08T22:22:02.320Z,8.74
2018-12-08T22:27:06.575Z,8.75
2018-12-08T22:32:12.265Z,8.79
2018-12-08T22:37:16.662Z,8.80
2018-12-08T22:42:20.902Z,8.77
2018-12-08T22:47:25.266Z,8.79
2018-12-08T22:52:29.619Z,8.83
2018-12-08T22:57:33.944Z,8.84
2018-12-08T23:02:38.216Z,8.85
2018-12-08T23:07:43.641Z,8.83
2018-12-08T23:12:48.015Z,8.79
2018-12-08T23:17:52.269Z,8.78
2018-12-08T23:22:56.867Z,8.73
2018-12-08T23:28:02.329Z,8.69
2018-12-08T23:33:06.699Z,8.60
2018-12-08T23:38:10.926Z,8.54
2018-12-08T23:43:16.565Z,8.45
2018-12-08T23:48:25.736Z,8.39
2018-12-08T23:53:32.203Z,8.33
2018-12-08T23:58:36.490Z,8.28
